Time;durP1;ratioP1;P1;durP2;ratioP2;P2;SDS_P1;SDS_P2;PMS_P1;PMS_P2;Temp;Humidity;BMP_temperature;BMP_pressure;BME280_temperature;BME280_humidity;BME280_pressure;Samples;Min_cycle;Max_cycle;Signal;HPM_P1;HPM_P2
2023/03/14 00:00:12;;;;;;;14.40;2.25;;;;;;;;;;5117377;28;20028;-24
2023/03/14 00:02:38;;;;;;;8.18;2.92;;;;;;;;;;5117319;28;20028;-25
2023/03/14 00:05:06;;;;;;;7.60;2.65;;;;;;;;;;5117830;28;20058;-25
2023/03/14 00:07:36;;;;;;;4.82;2.38;;;;;;;;;;5117149;28;20023;-25
2023/03/14 00:10:04;;;;;;;6.80;2.53;;;;;;;;;;5117409;28;20118;-25
2023/03/14 00:12:31;;;;;;;11.00;3.30;;;;;;;;;;5117383;28;20046;-24
2023/03/14 00:14:57;;;;;;;13.88;2.83;;;;;;;;;;5117048;28;20028;-26
2023/03/14 00:17:23;;;;;;;8.50;2.67;;;;;;;;;;5116795;28;20031;-26
2023/03/14 00:19:52;;;;;;;10.23;2.22;;;;;;;;;;5116940;28;20107;-26
2023/03/14 00:22:18;;;;;;;12.23;2.30;;;;;;;;;;5117163;28;20042;-26
2023/03/14 00:24:44;;;;;;;6.38;2.20;;;;;;;;;;5098913;28;20028;-25
2023/03/14 00:27:10;;;;;;;16.08;2.97;;;;;;;;;;5117121;28;20452;-25
2023/03/14 00:29:37;;;;;;;9.02;2.40;;;;;;;;;;5116967;28;20032;-26
2023/03/14 00:32:03;;;;;;;6.80;2.28;;;;;;;;;;5116988;28;20051;-26
2023/03/14 00:34:30;;;;;;;7.35;2.90;;;;;;;;;;5116975;28;20028;-25
2023/03/14 00:36:56;;;;;;;8.52;2.63;;;;;;;;;;5116646;28;20034;-25
2023/03/14 00:39:22;;;;;;;10.45;2.53;;;;;;;;;;5098593;28;20019;-25
2023/03/14 00:41:48;;;;;;;7.45;2.50;;;;;;;;;;5116487;28;20046;-25
2023/03/14 00:44:14;;;;;;;7.20;1.70;;;;;;;;;;5116555;28;20036;-25
2023/03/14 00:46:40;;;;;;;9.75;2.70;;;;;;;;;;5116550;28;20032;-26
2023/03/14 00:49:06;;;;;;;8.10;3.22;;;;;;;;;;5116679;28;20023;-25
2023/03/14 00:51:33;;;;;;;23.88;2.50;;;;;;;;;;5116289;28;20032;-26
2023/03/14 00:54:00;;;;;;;7.38;2.88;;;;;;;;;;5116276;28;20354;-26
2023/03/14 00:56:26;;;;;;;7.18;2.17;;;;;;;;;;5116317;28;20395;-26
2023/03/14 00:58:55;;;;;;;8.82;2.17;;;;;;;;;;5116749;28;20140;-26
2023/03/14 01:01:22;;;;;;;7.25;2.78;;;;;;;;;;5116440;28;20079;-25
2023/03/14 01:03:51;;;;;;;8.90;2.63;;;;;;;;;;5115979;28;20066;-26
2023/03/14 01:06:19;;;;;;;7.15;3.13;;;;;;;;;;5116091;28;20031;-25
2023/03/14 01:08:45;;;;;;;6.82;2.10;;;;;;;;;;5116033;28;20038;-26
2023/03/14 01:11:21;;;;;;;4.35;2.47;;;;;;;;;;5116197;28;20044;-26
2023/03/14 01:13:48;;;;;;;13.88;2.72;;;;;;;;;;5115778;28;20030;-26
2023/03/14 01:16:14;;;;;;;9.60;2.80;;;;;;;;;;5115915;28;20100;-26
2023/03/14 01:18:43;;;;;;;6.38;2.13;;;;;;;;;;5115879;28;20015;-26
2023/03/14 01:21:17;;;;;;;7.00;2.22;;;;;;;;;;5115724;28;20027;-26
2023/03/14 01:23:43;;;;;;;9.50;2.95;;;;;;;;;;5115926;28;20042;-25
2023/03/14 01:26:13;;;;;;;5.13;3.17;;;;;;;;;;5116466;28;20038;-25
2023/03/14 01:28:40;;;;;;;9.43;2.80;;;;;;;;;;5115132;28;20027;-26
2023/03/14 01:31:07;;;;;;;8.07;2.83;;;;;;;;;;5115811;28;20031;-26
2023/03/14 01:33:33;;;;;;;10.77;3.90;;;;;;;;;;5115550;28;20019;-26
2023/03/14 01:36:01;;;;;;;6.00;2.13;;;;;;;;;;5115812;28;20051;-26
2023/03/14 01:38:28;;;;;;;9.77;3.40;;;;;;;;;;5115456;28;20118;-25
2023/03/14 01:40:55;;;;;;;7.88;2.45;;;;;;;;;;5115751;28;20038;-26
2023/03/14 01:43:21;;;;;;;4.28;3.25;;;;;;;;;;5097409;28;20031;-26
2023/03/14 01:46:06;;;;;;;6.65;2.95;;;;;;;;;;5097471;28;20027;-27
2023/03/14 01:48:36;;;;;;;7.40;2.55;;;;;;;;;;5115373;28;20092;-26
2023/03/14 01:51:03;;;;;;;11.00;2.67;;;;;;;;;;5115859;28;20338;-27
2023/03/14 01:53:29;;;;;;;9.30;2.20;;;;;;;;;;5115457;28;20024;-26
2023/03/14 01:55:56;;;;;;;3.83;1.95;;;;;;;;;;5115206;28;20019;-26
2023/03/14 01:58:23;;;;;;;3.83;2.20;;;;;;;;;;5115485;28;20078;-23
2023/03/14 02:00:49;;;;;;;5.53;2.47;;;;;;;;;;5115429;28;20024;-23
2023/03/14 02:03:18;;;;;;;5.53;2.30;;;;;;;;;;5115114;28;20104;-23
2023/03/14 02:05:46;;;;;;;7.57;2.75;;;;;;;;;;5115134;28;20035;-23
2023/03/14 02:08:14;;;;;;;4.57;2.40;;;;;;;;;;5115083;28;20023;-23
2023/03/14 02:10:50;;;;;;;9.82;2.63;;;;;;;;;;5114997;28;20034;-26
2023/03/14 02:13:17;;;;;;;5.43;2.20;;;;;;;;;;5115264;28;20071;-25
2023/03/14 02:15:44;;;;;;;7.88;3.08;;;;;;;;;;5115036;28;20015;-26
2023/03/14 02:18:10;;;;;;;7.60;2.85;;;;;;;;;;5115019;28;20051;-24
2023/03/14 02:20:46;;;;;;;5.25;2.28;;;;;;;;;;5115278;28;20028;-24
2023/03/14 02:23:15;;;;;;;6.28;2.03;;;;;;;;;;5115158;28;20358;-24
2023/03/14 02:25:44;;;;;;;7.00;2.40;;;;;;;;;;5114872;28;20059;-24
2023/03/14 02:28:10;;;;;;;4.18;2.88;;;;;;;;;;5115169;28;20060;-24
2023/03/14 02:30:37;;;;;;;3.63;2.22;;;;;;;;;;5097615;28;20027;-23
2023/03/14 02:33:10;;;;;;;5.22;2.03;;;;;;;;;;5114819;28;20015;-23
2023/03/14 02:35:47;;;;;;;6.95;1.83;;;;;;;;;;5115116;28;20024;-23
2023/03/14 02:38:18;;;;;;;4.32;2.50;;;;;;;;;;5114952;28;20026;-24
2023/03/14 02:40:44;;;;;;;5.33;2.27;;;;;;;;;;5119194;28;20042;-24
2023/03/14 02:43:10;;;;;;;4.03;2.33;;;;;;;;;;5118808;28;20054;-23
2023/03/14 02:45:41;;;;;;;5.72;2.13;;;;;;;;;;5119075;28;20140;-24
2023/03/14 02:48:09;;;;;;;5.22;2.17;;;;;;;;;;5119131;28;20023;-24
2023/03/14 02:50:35;;;;;;;3.60;1.73;;;;;;;;;;5118926;28;20096;-23
2023/03/14 02:53:01;;;;;;;7.82;1.83;;;;;;;;;;5119107;28;20027;-24
2023/03/14 02:55:28;;;;;;;3.00;2.10;;;;;;;;;;5118562;28;20031;-24
2023/03/14 02:57:54;;;;;;;3.60;2.63;;;;;;;;;;5118567;28;20019;-24
2023/03/14 03:00:20;;;;;;;7.53;2.28;;;;;;;;;;5118809;28;20023;-24
2023/03/14 03:02:47;;;;;;;3.20;1.98;;;;;;;;;;5118621;28;20020;-24
2023/03/14 03:05:13;;;;;;;6.38;2.08;;;;;;;;;;5118996;28;20467;-24
2023/03/14 03:07:39;;;;;;;5.55;2.15;;;;;;;;;;5118431;28;20027;-24
2023/03/14 03:10:05;;;;;;;3.50;1.98;;;;;;;;;;5118833;28;20032;-24
2023/03/14 03:12:32;;;;;;;3.03;1.58;;;;;;;;;;5118166;28;20035;-24
2023/03/14 03:14:58;;;;;;;2.90;2.25;;;;;;;;;;5118222;28;20019;-26
2023/03/14 03:17:24;;;;;;;5.32;2.13;;;;;;;;;;5118223;28;20020;-24
2023/03/14 03:19:50;;;;;;;3.67;1.88;;;;;;;;;;5118659;28;20051;-26
2023/03/14 03:22:16;;;;;;;7.47;3.33;;;;;;;;;;5118510;28;20031;-26
2023/03/14 03:24:44;;;;;;;6.43;3.72;;;;;;;;;;5100143;28;20030;-24
2023/03/14 03:27:10;;;;;;;6.03;2.30;;;;;;;;;;5118017;28;20016;-24
2023/03/14 03:29:36;;;;;;;4.70;2.95;;;;;;;;;;5118413;28;20031;-24
2023/03/14 03:32:02;;;;;;;5.30;2.42;;;;;;;;;;5117842;28;20024;-24
2023/03/14 03:34:29;;;;;;;4.25;1.85;;;;;;;;;;5099920;28;20019;-23
2023/03/14 03:36:58;;;;;;;2.92;2.13;;;;;;;;;;5118055;28;20077;-25
2023/03/14 03:39:24;;;;;;;5.65;2.38;;;;;;;;;;5118340;28;20027;-24
2023/03/14 03:41:50;;;;;;;5.22;2.17;;;;;;;;;;5117672;28;20055;-24
2023/03/14 03:44:16;;;;;;;3.90;1.70;;;;;;;;;;5117670;28;20034;-24
2023/03/14 03:46:42;;;;;;;7.38;3.97;;;;;;;;;;5117603;28;20028;-23
2023/03/14 03:49:09;;;;;;;3.22;2.17;;;;;;;;;;5099631;28;20031;-24
2023/03/14 03:51:35;;;;;;;5.85;2.20;;;;;;;;;;5116417;28;20507;-24
2023/03/14 03:54:01;;;;;;;5.03;2.17;;;;;;;;;;5117627;28;20035;-24
2023/03/14 03:56:27;;;;;;;3.75;2.58;;;;;;;;;;5117759;28;20052;-24
2023/03/14 03:58:53;;;;;;;3.92;2.22;;;;;;;;;;5117930;28;20011;-24
2023/03/14 04:01:19;;;;;;;3.20;1.90;;;;;;;;;;5117640;28;20023;-24
2023/03/14 04:03:45;;;;;;;3.35;2.05;;;;;;;;;;5117056;28;20051;-24
2023/03/14 04:06:13;;;;;;;3.53;1.95;;;;;;;;;;5117294;28;20030;-24
2023/03/14 04:08:41;;;;;;;2.22;1.45;;;;;;;;;;5117502;28;20094;-24
2023/03/14 04:11:07;;;;;;;4.63;2.55;;;;;;;;;;5117648;28;20046;-24
2023/03/14 04:13:33;;;;;;;5.03;2.00;;;;;;;;;;5117006;28;20031;-24
2023/03/14 04:15:59;;;;;;;5.30;2.03;;;;;;;;;;5117367;28;20016;-24
2023/03/14 04:18:25;;;;;;;5.07;2.17;;;;;;;;;;5117310;28;20103;-24
2023/03/14 04:20:52;;;;;;;4.00;1.95;;;;;;;;;;5116978;28;20358;-24
2023/03/14 04:23:18;;;;;;;4.57;1.83;;;;;;;;;;5116922;28;20377;-24
2023/03/14 04:25:45;;;;;;;3.20;1.75;;;;;;;;;;5116846;28;20031;-24
2023/03/14 04:28:11;;;;;;;4.18;2.25;;;;;;;;;;5117128;28;20063;-24
2023/03/14 04:30:37;;;;;;;3.75;2.00;;;;;;;;;;5116980;28;20031;-23
2023/03/14 04:33:03;;;;;;;5.18;2.28;;;;;;;;;;5117160;28;20024;-24
2023/03/14 04:35:32;;;;;;;2.88;1.70;;;;;;;;;;5116661;28;20023;-25
2023/03/14 04:37:59;;;;;;;3.72;2.10;;;;;;;;;;5116949;28;20027;-24
2023/03/14 04:40:26;;;;;;;4.88;2.60;;;;;;;;;;5116592;28;20027;-24
2023/03/14 04:42:52;;;;;;;6.78;2.28;;;;;;;;;;5116577;28;20446;-25
2023/03/14 04:45:19;;;;;;;5.50;2.80;;;;;;;;;;5116775;28;20393;-24
2023/03/14 04:47:46;;;;;;;2.92;1.80;;;;;;;;;;5116739;28;20019;-24
2023/03/14 04:50:13;;;;;;;3.50;1.70;;;;;;;;;;5116622;28;20019;-24
2023/03/14 04:52:39;;;;;;;6.78;2.28;;;;;;;;;;5116165;28;20031;-24
2023/03/14 04:55:07;;;;;;;5.32;2.55;;;;;;;;;;5116633;28;20054;-25
2023/03/14 04:57:33;;;;;;;2.50;1.95;;;;;;;;;;5116336;28;20053;-24
2023/03/14 04:59:59;;;;;;;3.45;2.00;;;;;;;;;;5116187;28;20107;-24
2023/03/14 05:02:26;;;;;;;2.35;1.55;;;;;;;;;;5116003;28;20085;-24
2023/03/14 05:04:52;;;;;;;3.80;1.80;;;;;;;;;;5115866;28;20133;-24
2023/03/14 05:07:19;;;;;;;3.55;1.90;;;;;;;;;;5116336;28;20024;-24
2023/03/14 05:09:45;;;;;;;2.75;1.55;;;;;;;;;;5116092;28;20023;-24
2023/03/14 05:12:11;;;;;;;2.70;1.67;;;;;;;;;;5116126;28;20094;-23
2023/03/14 05:14:39;;;;;;;5.00;1.77;;;;;;;;;;5115643;28;20023;-24
2023/03/14 05:17:05;;;;;;;5.30;2.25;;;;;;;;;;5116097;28;20020;-24
2023/03/14 05:19:32;;;;;;;2.33;1.77;;;;;;;;;;5115620;28;20038;-24
2023/03/14 05:21:58;;;;;;;7.45;2.05;;;;;;;;;;5115810;28;20031;-25
2023/03/14 05:24:24;;;;;;;3.42;1.98;;;;;;;;;;5115649;28;20020;-24
2023/03/14 05:26:51;;;;;;;3.75;2.15;;;;;;;;;;5115544;28;20024;-24
2023/03/14 05:29:17;;;;;;;3.72;2.25;;;;;;;;;;5115429;28;20038;-24
2023/03/14 05:31:44;;;;;;;3.45;1.90;;;;;;;;;;5115272;28;20041;-25
2023/03/14 05:34:11;;;;;;;9.93;2.15;;;;;;;;;;5115768;28;20342;-25
2023/03/14 05:36:39;;;;;;;3.58;2.58;;;;;;;;;;5115588;28;20338;-24
2023/03/14 05:39:05;;;;;;;2.05;1.60;;;;;;;;;;5115296;28;20020;-24
2023/03/14 05:41:31;;;;;;;4.78;2.08;;;;;;;;;;5115030;28;20144;-25
2023/03/14 05:43:58;;;;;;;4.80;1.83;;;;;;;;;;5115096;28;20024;-24
2023/03/14 05:46:25;;;;;;;4.28;1.67;;;;;;;;;;5115115;28;20051;-24
2023/03/14 05:48:51;;;;;;;2.88;1.67;;;;;;;;;;5114860;28;20469;-24
2023/03/14 05:51:18;;;;;;;3.05;1.98;;;;;;;;;;5096825;28;20023;-24
2023/03/14 05:53:44;;;;;;;3.08;1.65;;;;;;;;;;5114895;28;20031;-24
2023/03/14 05:56:11;;;;;;;3.35;1.90;;;;;;;;;;5097038;28;20385;-24
2023/03/14 05:58:38;;;;;;;4.30;1.73;;;;;;;;;;5115062;28;20019;-24
2023/03/14 06:01:05;;;;;;;3.42;1.88;;;;;;;;;;5114986;28;20031;-24
2023/03/14 06:03:32;;;;;;;4.38;1.85;;;;;;;;;;5114372;28;20405;-24
2023/03/14 06:05:59;;;;;;;8.10;2.55;;;;;;;;;;5115122;28;20469;-26
2023/03/14 06:08:25;;;;;;;4.00;2.00;;;;;;;;;;5114747;28;20055;-25
2023/03/14 06:10:52;;;;;;;5.00;1.90;;;;;;;;;;5114592;28;20497;-25
2023/03/14 06:13:19;;;;;;;3.22;1.75;;;;;;;;;;5114073;28;20023;-26
2023/03/14 06:15:47;;;;;;;4.80;1.95;;;;;;;;;;5114846;28;20026;-24
2023/03/14 06:18:14;;;;;;;4.30;1.70;;;;;;;;;;5114752;28;20062;-24
2023/03/14 06:20:40;;;;;;;4.10;2.20;;;;;;;;;;5114930;28;20016;-26
2023/03/14 06:23:07;;;;;;;3.38;1.90;;;;;;;;;;5114422;28;20032;-24
2023/03/14 06:25:35;;;;;;;7.40;2.05;;;;;;;;;;5114433;28;20098;-25
2023/03/14 06:28:02;;;;;;;4.78;1.63;;;;;;;;;;5115050;28;20032;-25
2023/03/14 06:30:29;;;;;;;5.75;1.92;;;;;;;;;;5114971;28;20065;-24
2023/03/14 06:32:56;;;;;;;8.30;2.13;;;;;;;;;;5114435;28;20020;-24
2023/03/14 06:35:23;;;;;;;6.15;2.08;;;;;;;;;;5114470;28;20020;-24
2023/03/14 06:37:50;;;;;;;6.82;2.30;;;;;;;;;;5114399;28;20023;-24
2023/03/14 06:40:17;;;;;;;10.75;2.70;;;;;;;;;;5114673;28;20116;-24
2023/03/14 06:42:47;;;;;;;9.48;2.22;;;;;;;;;;5114351;28;20088;-24
2023/03/14 06:45:14;;;;;;;7.50;1.90;;;;;;;;;;5114851;28;20051;-24
2023/03/14 06:47:41;;;;;;;9.32;1.98;;;;;;;;;;5114501;28;20095;-24
2023/03/14 06:50:08;;;;;;;5.05;2.10;;;;;;;;;;5114361;28;20395;-24
2023/03/14 06:52:35;;;;;;;10.27;1.58;;;;;;;;;;5114374;28;20465;-25
2023/03/14 06:55:02;;;;;;;5.28;1.90;;;;;;;;;;5114362;28;20016;-24
2023/03/14 06:57:29;;;;;;;7.18;1.58;;;;;;;;;;5096529;28;20046;-24
2023/03/14 06:59:55;;;;;;;4.22;1.95;;;;;;;;;;5115043;28;20106;-24
2023/03/14 07:02:23;;;;;;;5.10;1.60;;;;;;;;;;5114024;28;20098;-25
2023/03/14 07:04:49;;;;;;;6.93;2.10;;;;;;;;;;5114069;28;20460;-25
2023/03/14 07:07:16;;;;;;;3.22;1.65;;;;;;;;;;5114234;28;20107;-25
2023/03/14 07:09:43;;;;;;;9.38;2.63;;;;;;;;;;5114087;28;20015;-23
2023/03/14 07:12:09;;;;;;;5.18;1.70;;;;;;;;;;5114355;28;20377;-24
2023/03/14 07:14:36;;;;;;;3.28;1.45;;;;;;;;;;5114518;28;20024;-23
2023/03/14 07:17:03;;;;;;;3.03;1.25;;;;;;;;;;5114239;28;20040;-24
2023/03/14 07:19:29;;;;;;;4.72;1.90;;;;;;;;;;5114419;28;20107;-24
2023/03/14 07:21:57;;;;;;;8.00;1.85;;;;;;;;;;5096037;28;20032;-24
2023/03/14 07:24:23;;;;;;;3.92;1.50;;;;;;;;;;5114116;28;20354;-24
2023/03/14 07:26:50;;;;;;;6.75;2.15;;;;;;;;;;5116733;28;20128;-24
2023/03/14 07:29:16;;;;;;;3.78;1.85;;;;;;;;;;5118126;28;20092;-25
2023/03/14 07:31:43;;;;;;;3.10;1.90;;;;;;;;;;5117616;28;20431;-24
2023/03/14 07:34:10;;;;;;;4.70;1.55;;;;;;;;;;5099705;28;20031;-24
2023/03/14 07:36:38;;;;;;;8.40;1.90;;;;;;;;;;5117796;28;20019;-24
2023/03/14 07:39:05;;;;;;;5.03;1.65;;;;;;;;;;5117742;28;20398;-25
2023/03/14 07:41:31;;;;;;;4.50;1.67;;;;;;;;;;5117421;28;20066;-24
2023/03/14 07:43:58;;;;;;;2.08;1.50;;;;;;;;;;5117303;28;20179;-24
2023/03/14 07:46:25;;;;;;;5.80;1.60;;;;;;;;;;5117771;28;20429;-24
2023/03/14 07:48:51;;;;;;;4.18;2.03;;;;;;;;;;5117356;28;20051;-26
2023/03/14 07:51:19;;;;;;;6.75;2.00;;;;;;;;;;5117534;28;20342;-24
2023/03/14 07:53:46;;;;;;;5.57;1.85;;;;;;;;;;5117192;28;20027;-24
2023/03/14 07:56:12;;;;;;;8.07;1.35;;;;;;;;;;5117609;28;20035;-24
2023/03/14 07:58:39;;;;;;;5.38;1.88;;;;;;;;;;5117526;28;20454;-24
2023/03/14 08:01:06;;;;;;;6.65;2.08;;;;;;;;;;5117162;28;20176;-24
2023/03/14 08:03:32;;;;;;;9.57;1.90;;;;;;;;;;5116880;28;20040;-24
2023/03/14 08:05:59;;;;;;;5.78;1.42;;;;;;;;;;5117412;28;20472;-24
2023/03/14 08:08:26;;;;;;;9.38;4.70;;;;;;;;;;5117073;28;20039;-24
2023/03/14 08:10:52;;;;;;;7.35;1.60;;;;;;;;;;5117113;28;20130;-24
2023/03/14 08:13:21;;;;;;;6.80;2.10;;;;;;;;;;5116929;28;20024;-24
2023/03/14 08:15:51;;;;;;;3.40;1.83;;;;;;;;;;5116946;28;20034;-25
2023/03/14 08:18:17;;;;;;;7.68;2.10;;;;;;;;;;5116952;28;20019;-24
2023/03/14 08:20:44;;;;;;;8.32;1.80;;;;;;;;;;5117119;28;20087;-24
2023/03/14 08:23:11;;;;;;;10.43;2.55;;;;;;;;;;5098671;28;20461;-24
2023/03/14 08:25:38;;;;;;;4.45;1.73;;;;;;;;;;5116842;28;20050;-24
2023/03/14 08:28:05;;;;;;;12.20;1.95;;;;;;;;;;5116754;28;20102;-25
2023/03/14 08:30:32;;;;;;;14.27;1.80;;;;;;;;;;5117336;28;20051;-24
2023/03/14 08:32:59;;;;;;;9.00;2.50;;;;;;;;;;5116461;28;20098;-25
2023/03/14 08:35:26;;;;;;;12.57;1.85;;;;;;;;;;5116338;28;20435;-25
2023/03/14 08:37:52;;;;;;;8.43;2.42;;;;;;;;;;5115821;28;20090;-24
2023/03/14 08:40:19;;;;;;;8.80;2.25;;;;;;;;;;5116385;28;20020;-25
2023/03/14 08:42:46;;;;;;;10.18;2.13;;;;;;;;;;5116435;28;20031;-24
2023/03/14 08:45:14;;;;;;;6.25;2.60;;;;;;;;;;5116225;28;20050;-24
2023/03/14 08:47:40;;;;;;;7.55;1.90;;;;;;;;;;5098305;28;20422;-23
2023/03/14 08:50:08;;;;;;;8.52;1.67;;;;;;;;;;5116057;28;20035;-24
2023/03/14 08:52:34;;;;;;;6.40;2.10;;;;;;;;;;5115932;28;20093;-24
2023/03/14 08:55:01;;;;;;;5.78;3.10;;;;;;;;;;5116124;28;20034;-24
2023/03/14 08:57:27;;;;;;;5.65;2.30;;;;;;;;;;5115921;28;20408;-24
2023/03/14 08:59:55;;;;;;;6.25;2.30;;;;;;;;;;5116454;28;20106;-25
2023/03/14 09:02:22;;;;;;;17.98;5.43;;;;;;;;;;5115998;28;20419;-25
2023/03/14 09:04:48;;;;;;;4.57;1.67;;;;;;;;;;5094221;28;20040;-24
2023/03/14 09:07:15;;;;;;;8.35;2.60;;;;;;;;;;5095389;28;20024;-24
2023/03/14 09:09:42;;;;;;;21.75;2.85;;;;;;;;;;5095390;28;20031;-24
2023/03/14 09:12:08;;;;;;;6.95;1.95;;;;;;;;;;5095693;28;20580;-25
2023/03/14 09:14:35;;;;;;;14.43;2.15;;;;;;;;;;5095126;28;20511;-24
2023/03/14 09:17:03;;;;;;;9.13;2.17;;;;;;;;;;5095455;28;20024;-25
2023/03/14 09:19:29;;;;;;;9.10;1.95;;;;;;;;;;5094092;28;20028;-24
2023/03/14 09:21:57;;;;;;;4.63;1.45;;;;;;;;;;5094841;28;20039;-25
2023/03/14 09:24:23;;;;;;;2.00;1.70;;;;;;;;;;5095321;28;20024;-23
2023/03/14 09:26:50;;;;;;;4.57;1.70;;;;;;;;;;5094090;28;20056;-24
2023/03/14 09:29:17;;;;;;;4.65;1.95;;;;;;;;;;5095387;28;20467;-24
2023/03/14 09:31:45;;;;;;;11.73;2.45;;;;;;;;;;5094988;28;20028;-26
2023/03/14 09:34:11;;;;;;;4.50;2.05;;;;;;;;;;5095199;28;20012;-24
2023/03/14 09:36:39;;;;;;;9.05;1.98;;;;;;;;;;5094748;28;20076;-25
2023/03/14 09:39:06;;;;;;;11.77;1.88;;;;;;;;;;5095151;28;20371;-30
2023/03/14 09:41:38;;;;;;;20.27;2.53;;;;;;;;;;5094800;28;20052;-24
2023/03/14 09:44:06;;;;;;;17.50;2.45;;;;;;;;;;5094695;28;20451;-24
2023/03/14 09:46:35;;;;;;;24.33;2.78;;;;;;;;;;5095267;28;20039;-24
2023/03/14 09:49:03;;;;;;;18.15;2.97;;;;;;;;;;5094001;28;20034;-24
2023/03/14 09:51:31;;;;;;;33.17;3.65;;;;;;;;;;5095021;28;20504;-24
2023/03/14 09:53:58;;;;;;;14.02;2.30;;;;;;;;;;5094741;28;20056;-24
2023/03/14 09:56:31;;;;;;;12.55;2.15;;;;;;;;;;5094811;28;20085;-24
2023/03/14 09:59:00;;;;;;;22.40;3.22;;;;;;;;;;5093801;28;20077;-25
2023/03/14 10:01:28;;;;;;;40.13;3.65;;;;;;;;;;5094669;28;20059;-25
2023/03/14 10:03:56;;;;;;;26.58;3.53;;;;;;;;;;5105859;28;20496;-26
2023/03/14 10:06:28;;;;;;;17.27;3.08;;;;;;;;;;5115142;28;20028;-24
2023/03/14 10:08:56;;;;;;;17.40;3.30;;;;;;;;;;5115376;28;20024;-24
2023/03/14 10:11:24;;;;;;;9.80;2.85;;;;;;;;;;5114818;28;20081;-24
2023/03/14 10:14:03;;;;;;;23.17;2.83;;;;;;;;;;5114980;28;20039;-24
2023/03/14 10:16:31;;;;;;;10.57;3.75;;;;;;;;;;5115226;28;20028;-25
2023/03/14 10:19:05;;;;;;;12.48;4.03;;;;;;;;;;5115195;28;20019;-25
2023/03/14 10:21:36;;;;;;;25.15;3.03;;;;;;;;;;5114842;28;20032;-25
2023/03/14 10:24:19;;;;;;;60.83;5.80;;;;;;;;;;5115025;28;20368;-24
2023/03/14 10:26:49;;;;;;;288.65;23.17;;;;;;;;;;5114538;28;20054;-24
2023/03/14 10:29:16;;;;;;;259.75;22.10;;;;;;;;;;5114871;28;20096;-24
2023/03/14 10:31:55;;;;;;;37.67;5.07;;;;;;;;;;5114780;28;20034;-27
2023/03/14 10:34:24;;;;;;;32.42;5.45;;;;;;;;;;5114658;28;20094;-24
2023/03/14 10:36:59;;;;;;;12.98;2.78;;;;;;;;;;5114424;28;20039;-24
2023/03/14 10:39:25;;;;;;;15.77;2.65;;;;;;;;;;5114560;28;20354;-24
2023/03/14 10:42:15;;;;;;;6.97;2.10;;;;;;;;;;5114626;28;20032;-25
2023/03/14 10:44:42;;;;;;;20.13;3.40;;;;;;;;;;5087424;28;20079;-24
2023/03/14 10:47:15;;;;;;;24.52;3.05;;;;;;;;;;5114364;28;20434;-25
2023/03/14 10:49:42;;;;;;;10.98;2.00;;;;;;;;;;5114595;28;20027;-24
2023/03/14 10:52:15;;;;;;;14.25;1.95;;;;;;;;;;5114456;28;20023;-24
2023/03/14 10:54:44;;;;;;;22.13;4.38;;;;;;;;;;5114607;28;20319;-24
2023/03/14 10:57:12;;;;;;;15.27;3.17;;;;;;;;;;5114364;28;20051;-24
2023/03/14 10:59:40;;;;;;;17.52;2.63;;;;;;;;;;5115117;28;20020;-24
2023/03/14 11:02:24;;;;;;;23.00;2.33;;;;;;;;;;5118411;28;20410;-24
2023/03/14 11:05:04;;;;;;;12.15;2.40;;;;;;;;;;5118150;28;20100;-25
2023/03/14 11:07:41;;;;;;;18.42;2.90;;;;;;;;;;5118341;28;20357;-24
2023/03/14 11:10:30;;;;;;;13.65;2.53;;;;;;;;;;5118242;28;20028;-24
2023/03/14 11:13:06;;;;;;;13.88;2.30;;;;;;;;;;5118141;28;20030;-24
2023/03/14 11:15:33;;;;;;;16.90;2.95;;;;;;;;;;5117930;28;20111;-24
2023/03/14 11:18:00;;;;;;;20.15;3.03;;;;;;;;;;5118012;28;20093;-25
2023/03/14 11:20:44;;;;;;;12.20;2.65;;;;;;;;;;5118081;28;20127;-24
2023/03/14 11:23:21;;;;;;;19.00;3.28;;;;;;;;;;5117950;28;20024;-24
2023/03/14 11:25:49;;;;;;;16.27;3.63;;;;;;;;;;5117891;28;20027;-25
2023/03/14 11:28:36;;;;;;;20.02;3.80;;;;;;;;;;5099790;28;20023;-26
2023/03/14 11:31:12;;;;;;;10.70;2.63;;;;;;;;;;5099678;28;20039;-28
2023/03/14 11:33:40;;;;;;;23.23;3.53;;;;;;;;;;5117897;28;20024;-26
2023/03/14 11:36:06;;;;;;;18.65;3.78;;;;;;;;;;5117742;28;20020;-26
2023/03/14 11:38:35;;;;;;;23.85;3.97;;;;;;;;;;5117648;28;20111;-25
2023/03/14 11:41:01;;;;;;;24.23;4.43;;;;;;;;;;5117628;28;20038;-26
2023/03/14 11:43:34;;;;;;;24.23;4.30;;;;;;;;;;5117600;28;20123;-25
2023/03/14 11:46:10;;;;;;;24.60;3.22;;;;;;;;;;5117949;28;20024;-25
2023/03/14 11:48:39;;;;;;;22.77;3.60;;;;;;;;;;5117773;28;20044;-25
2023/03/14 11:51:08;;;;;;;29.90;4.38;;;;;;;;;;5117351;28;20028;-26
2023/03/14 11:53:44;;;;;;;27.02;4.22;;;;;;;;;;5117298;28;20207;-26
2023/03/14 11:56:13;;;;;;;29.55;3.90;;;;;;;;;;5117432;28;20020;-25
2023/03/14 11:58:43;;;;;;;27.92;3.45;;;;;;;;;;5099464;28;20027;-26
2023/03/14 12:01:11;;;;;;;23.88;4.03;;;;;;;;;;5099354;28;20434;-26
2023/03/14 12:03:40;;;;;;;16.67;3.60;;;;;;;;;;5117167;28;20054;-25
2023/03/14 12:06:24;;;;;;;27.85;3.70;;;;;;;;;;5117565;28;20019;-25
2023/03/14 12:08:57;;;;;;;21.25;3.28;;;;;;;;;;5117226;28;20413;-26
2023/03/14 12:11:33;;;;;;;31.05;3.55;;;;;;;;;;5116475;28;20058;-27
2023/03/14 12:14:00;;;;;;;25.27;3.65;;;;;;;;;;5117325;28;20332;-26
2023/03/14 12:16:26;;;;;;;24.70;3.67;;;;;;;;;;5116918;28;20012;-25
2023/03/14 12:18:53;;;;;;;20.23;3.60;;;;;;;;;;5117172;28;20035;-26
2023/03/14 12:21:19;;;;;;;18.75;4.07;;;;;;;;;;5117075;28;20049;-26
2023/03/14 12:23:46;;;;;;;26.35;4.43;;;;;;;;;;5116666;28;20024;-25
2023/03/14 12:26:12;;;;;;;19.90;3.38;;;;;;;;;;5116884;28;20357;-26
2023/03/14 12:28:39;;;;;;;18.42;4.43;;;;;;;;;;5116617;28;20076;-25
2023/03/14 12:31:25;;;;;;;15.45;3.97;;;;;;;;;;5116793;28;20027;-26
2023/03/14 12:34:04;;;;;;;13.77;3.67;;;;;;;;;;5081557;28;20050;-25
2023/03/14 12:36:57;;;;;;;17.75;4.20;;;;;;;;;;5098450;28;20016;-26
2023/03/14 12:39:44;;;;;;;20.30;4.22;;;;;;;;;;5111907;28;20028;-25
2023/03/14 12:42:13;;;;;;;20.98;3.40;;;;;;;;;;5098775;28;20054;-26
2023/03/14 12:44:40;;;;;;;22.55;4.03;;;;;;;;;;5116698;28;20123;-25
2023/03/14 12:47:18;;;;;;;21.80;5.28;;;;;;;;;;5116106;28;20036;-25
2023/03/14 12:49:49;;;;;;;17.63;3.78;;;;;;;;;;5116182;28;20454;-26
2023/03/14 12:52:33;;;;;;;21.42;3.40;;;;;;;;;;5116108;28;20156;-26
2023/03/14 12:55:08;;;;;;;14.73;3.80;;;;;;;;;;5117209;28;20040;-26
2023/03/14 12:57:37;;;;;;;19.08;4.38;;;;;;;;;;5116097;28;20076;-26
2023/03/14 13:00:19;;;;;;;32.47;3.90;;;;;;;;;;5116037;28;20377;-25
2023/03/14 13:02:47;;;;;;;20.83;3.53;;;;;;;;;;5115836;28;20461;-25
2023/03/14 13:05:21;;;;;;;15.52;3.88;;;;;;;;;;5115766;28;20038;-25
2023/03/14 13:07:47;;;;;;;24.48;4.68;;;;;;;;;;5115773;28;20462;-25
2023/03/14 13:10:23;;;;;;;11.55;3.60;;;;;;;;;;5115590;28;20096;-25
2023/03/14 13:12:55;;;;;;;20.25;3.80;;;;;;;;;;5115418;28;20020;-26
2023/03/14 13:15:30;;;;;;;28.20;4.15;;;;;;;;;;5115515;28;20153;-25
2023/03/14 13:18:00;;;;;;;26.25;3.53;;;;;;;;;;5115410;28;20030;-25
2023/03/14 13:20:31;;;;;;;26.58;4.32;;;;;;;;;;5115386;28;20047;-25
2023/03/14 13:22:57;;;;;;;;;;;;;;;;;;5116000;28;20066;-26
2023/03/14 13:25:24;;;;;;;12.05;2.70;;;;;;;;;;5115811;28;20200;-26
2023/03/14 13:27:53;;;;;;;13.88;3.60;;;;;;;;;;5115248;28;20046;-25
2023/03/14 13:30:24;;;;;;;20.17;4.82;;;;;;;;;;5115466;28;20109;-25
2023/03/14 13:32:51;;;;;;;21.40;6.72;;;;;;;;;;5115244;28;20020;-26
2023/03/14 13:35:19;;;;;;;24.33;3.30;;;;;;;;;;5115132;28;20024;-25
2023/03/14 13:37:45;;;;;;;16.85;4.05;;;;;;;;;;5115665;28;20026;-26
2023/03/14 13:40:25;;;;;;;19.08;2.72;;;;;;;;;;5097168;28;20028;-26
2023/03/14 13:42:59;;;;;;;21.20;4.18;;;;;;;;;;5115631;28;20020;-25
2023/03/14 13:45:25;;;;;;;17.38;3.97;;;;;;;;;;5097024;28;20085;-26
2023/03/14 13:47:52;;;;;;;27.15;4.68;;;;;;;;;;5115081;28;20028;-25
2023/03/14 13:50:19;;;;;;;13.85;3.88;;;;;;;;;;5114998;28;20039;-26
2023/03/14 13:52:46;;;;;;;12.48;3.42;;;;;;;;;;5115107;28;20019;-26
2023/03/14 13:55:18;;;;;;;18.92;4.55;;;;;;;;;;5115413;28;20063;-26
2023/03/14 13:57:54;;;;;;;18.80;2.97;;;;;;;;;;5115164;28;20019;-26
2023/03/14 14:00:27;;;;;;;12.00;3.45;;;;;;;;;;5115015;28;20096;-26
2023/03/14 14:03:00;;;;;;;37.72;5.18;;;;;;;;;;5096798;28;20106;-26
2023/03/14 14:05:27;;;;;;;18.88;3.45;;;;;;;;;;5114988;28;20031;-26
2023/03/14 14:07:54;;;;;;;22.73;4.07;;;;;;;;;;5115074;28;20028;-26
2023/03/14 14:10:20;;;;;;;18.35;3.67;;;;;;;;;;5115259;28;20057;-25
2023/03/14 14:12:50;;;;;;;28.13;4.00;;;;;;;;;;5114928;28;20446;-26
2023/03/14 14:15:24;;;;;;;20.25;3.90;;;;;;;;;;5115503;28;20404;-25
2023/03/14 14:17:54;;;;;;;17.00;3.70;;;;;;;;;;5114884;28;20020;-25
2023/03/14 14:20:31;;;;;;;22.45;4.50;;;;;;;;;;5115475;28;20443;-25
2023/03/14 14:22:57;;;;;;;9.55;3.00;;;;;;;;;;5114858;28;20028;-25
2023/03/14 14:25:23;;;;;;;19.52;4.88;;;;;;;;;;5115125;28;20031;-25
2023/03/14 14:27:50;;;;;;;15.40;3.47;;;;;;;;;;5114667;28;20019;-25
2023/03/14 14:30:19;;;;;;;18.02;3.95;;;;;;;;;;5114600;28;20358;-25
2023/03/14 14:32:50;;;;;;;19.42;3.58;;;;;;;;;;5114866;28;20024;-25
2023/03/14 14:35:27;;;;;;;14.07;5.75;;;;;;;;;;5116858;28;20440;-25
2023/03/14 14:37:53;;;;;;;14.98;2.85;;;;;;;;;;5118734;28;20020;-25
2023/03/14 14:40:22;;;;;;;18.52;3.40;;;;;;;;;;5118642;28;20039;-25
2023/03/14 14:42:49;;;;;;;9.23;3.08;;;;;;;;;;5118965;28;20016;-25
2023/03/14 14:45:19;;;;;;;23.77;5.25;;;;;;;;;;5119472;28;20106;-25